Allensburg, Ohio
Current Conditions -  °F | °C
As of 5:54 AM on Saturday 25 Oct 2014 (Local Time) from KILN Reporting Station
Clear Clear  
Wind Chill: 43°   Ceiling: Unl
Heat Index: 45°   Visibility: 9mi
Dew Point: 40°   Wind: 5mph
Humidity: 82%   Direction: 180°S
Pressure: 30"   Gusts: NA
Location:  39.1546°N, 83.569°W
Report Text: KILN 250954Z AUTO 18004KT 9SM CLR 07/04 A3000 RMK AO2 SLP166 T00720044
Loading
Personal Weather Stations






























Interactive Weather Map New forecast layout! Learn more

10-Day Weather Forecast

Advertisements
Track Severe Weather on mobile